createdAt,value
2018-06-15T00:02:13.286Z,4.12
2018-06-15T00:04:40.767Z,3.70
2018-06-15T00:07:08.188Z,3.22
2018-06-15T00:09:35.769Z,3.30
2018-06-15T00:12:03.621Z,3.37
2018-06-15T00:14:31.105Z,4.22
2018-06-15T00:16:58.960Z,3.62
2018-06-15T00:19:26.739Z,4.97
2018-06-15T00:21:54.248Z,4.12
2018-06-15T00:24:22.094Z,4.53
2018-06-15T00:26:49.570Z,3.20
2018-06-15T00:29:17.202Z,3.70
2018-06-15T00:31:44.967Z,4.33
2018-06-15T00:34:12.488Z,3.60
2018-06-15T00:36:40.268Z,3.87
2018-06-15T00:39:09.138Z,3.10
2018-06-15T00:41:36.558Z,3.33
2018-06-15T00:44:03.982Z,3.47
2018-06-15T00:46:31.466Z,3.22
2018-06-15T00:48:59.144Z,3.33
2018-06-15T00:51:26.654Z,3.60
2018-06-15T00:53:54.116Z,3.90
2018-06-15T00:56:21.594Z,4.15
2018-06-15T00:58:49.290Z,3.65
2018-06-15T01:01:16.718Z,3.75
2018-06-15T01:03:44.127Z,4.28
2018-06-15T01:06:12.102Z,3.00
2018-06-15T01:08:39.662Z,3.77
2018-06-15T01:11:07.261Z,3.65
2018-06-15T01:13:35.247Z,3.72
2018-06-15T01:16:02.711Z,3.60
2018-06-15T01:18:30.159Z,3.40
2018-06-15T01:20:57.642Z,3.77
2018-06-15T01:23:25.124Z,3.90
2018-06-15T01:25:52.552Z,4.20
2018-06-15T01:28:20.304Z,4.28
2018-06-15T01:30:47.874Z,3.95
2018-06-15T01:33:15.329Z,3.55
2018-06-15T01:35:42.868Z,4.35
2018-06-15T01:38:10.589Z,4.37
2018-06-15T01:40:38.062Z,4.15
2018-06-15T01:43:05.466Z,4.37
2018-06-15T01:45:32.963Z,4.53
2018-06-15T01:48:00.458Z,4.47
2018-06-15T01:50:27.861Z,3.75
2018-06-15T01:52:55.342Z,3.83
2018-06-15T01:55:22.738Z,3.75
2018-06-15T01:57:50.170Z,4.15
2018-06-15T02:00:17.796Z,4.83
2018-06-15T02:02:45.569Z,4.35
2018-06-15T02:05:12.978Z,3.62
2018-06-15T02:07:41.542Z,3.42
2018-06-15T02:10:08.959Z,3.65
2018-06-15T02:12:36.758Z,3.33
2018-06-15T02:15:04.294Z,3.58
2018-06-15T02:17:32.468Z,3.67
2018-06-15T02:20:00.241Z,3.55
2018-06-15T02:22:27.729Z,3.45
2018-06-15T02:24:55.170Z,4.10
2018-06-15T02:27:22.628Z,3.90
2018-06-15T02:29:51.798Z,4.20
2018-06-15T02:32:19.380Z,4.05
2018-06-15T02:34:46.910Z,3.47
2018-06-15T02:37:14.583Z,4.45
2018-06-15T02:39:41.987Z,3.58
2018-06-15T02:42:09.488Z,3.62
2018-06-15T02:44:37.213Z,3.98
2018-06-15T02:47:04.627Z,4.12
2018-06-15T02:49:32.260Z,4.00
2018-06-15T02:51:59.998Z,3.85
2018-06-15T02:54:27.407Z,3.90
2018-06-15T02:56:54.920Z,3.60
2018-06-15T02:59:22.470Z,4.10
2018-06-15T03:01:50.178Z,4.08
2018-06-15T03:04:18.131Z,4.08
2018-06-15T03:06:45.615Z,4.17
2018-06-15T03:09:13.743Z,4.33
2018-06-15T03:11:41.175Z,3.95
2018-06-15T03:14:08.598Z,4.37
2018-06-15T03:16:36.101Z,4.15
2018-06-15T03:19:03.663Z,4.22
2018-06-15T03:21:31.704Z,4.62
2018-06-15T03:23:59.535Z,3.80
2018-06-15T03:26:27.595Z,3.90
2018-06-15T03:28:55.357Z,4.12
2018-06-15T03:31:23.297Z,3.72
2018-06-15T03:33:50.829Z,4.75
2018-06-15T03:36:18.648Z,3.83
2018-06-15T03:38:46.146Z,3.62
2018-06-15T03:41:13.575Z,4.25
2018-06-15T03:43:40.998Z,4.60
2018-06-15T03:46:08.572Z,4.45
2018-06-15T03:48:35.986Z,3.87
2018-06-15T03:51:03.761Z,3.33
2018-06-15T03:53:31.174Z,4.83
2018-06-15T03:55:58.566Z,5.53
2018-06-15T03:58:26.231Z,4.80
2018-06-15T04:00:53.838Z,4.58
2018-06-15T04:03:21.282Z,4.65
2018-06-15T04:05:49.235Z,4.30
2018-06-15T04:08:17.114Z,4.83
2018-06-15T04:10:44.723Z,4.08
2018-06-15T04:13:12.214Z,5.50
2018-06-15T04:15:40.162Z,4.45
2018-06-15T04:18:08.106Z,4.58
2018-06-15T04:20:37.730Z,4.70
2018-06-15T04:23:05.453Z,5.47
2018-06-15T04:25:32.981Z,4.72
2018-06-15T04:28:00.379Z,5.28
2018-06-15T04:30:28.274Z,4.85
2018-06-15T04:32:56.247Z,5.03
2018-06-15T04:35:23.675Z,5.28
2018-06-15T04:37:53.091Z,5.22
2018-06-15T04:40:20.705Z,4.83
2018-06-15T04:42:48.155Z,5.58
2018-06-15T04:45:15.571Z,5.58
2018-06-15T04:47:43.799Z,4.78
2018-06-15T04:50:11.230Z,5.03
2018-06-15T04:52:38.736Z,5.22
2018-06-15T04:55:06.897Z,5.42
2018-06-15T04:57:34.395Z,4.83
2018-06-15T05:00:01.880Z,5.92
2018-06-15T05:02:29.981Z,5.40
2018-06-15T05:04:57.803Z,4.85
2018-06-15T05:07:25.439Z,4.72
2018-06-15T05:09:52.964Z,5.12
2018-06-15T05:12:21.443Z,5.30
2018-06-15T05:14:49.040Z,4.55
2018-06-15T05:17:16.943Z,4.40
2018-06-15T05:19:44.894Z,5.83
2018-06-15T05:22:12.858Z,5.40
2018-06-15T05:24:40.299Z,5.53
2018-06-15T05:27:08.011Z,4.50
2018-06-15T05:29:36.648Z,5.10
2018-06-15T05:32:04.252Z,4.90
2018-06-15T05:34:31.835Z,3.75
2018-06-15T05:36:59.690Z,4.70
2018-06-15T05:39:27.118Z,5.10
2018-06-15T05:41:54.550Z,5.10
2018-06-15T05:44:21.993Z,4.53
2018-06-15T05:46:49.410Z,5.50
2018-06-15T05:49:16.913Z,4.72
2018-06-15T05:51:44.580Z,5.60
2018-06-15T05:54:12.122Z,4.92
2018-06-15T05:56:39.530Z,4.75
2018-06-15T05:59:06.948Z,4.53
2018-06-15T06:01:34.426Z,5.47
2018-06-15T06:04:01.951Z,4.33
2018-06-15T06:06:30.813Z,4.60
2018-06-15T06:09:00.572Z,4.87
2018-06-15T06:11:28.048Z,5.33
2018-06-15T06:13:55.487Z,5.37
2018-06-15T06:16:22.951Z,5.05
2018-06-15T06:18:50.841Z,4.20
2018-06-15T06:21:18.242Z,4.65
2018-06-15T06:23:45.753Z,4.42
2018-06-15T06:26:13.347Z,4.00
2018-06-15T06:28:40.753Z,3.70
2018-06-15T06:31:08.354Z,4.03
2018-06-15T06:33:35.859Z,3.60
2018-06-15T06:36:03.311Z,4.40
2018-06-15T06:38:30.739Z,3.70
2018-06-15T06:40:58.769Z,4.00
2018-06-15T06:43:26.219Z,3.50
2018-06-15T06:45:53.798Z,3.58
2018-06-15T06:48:21.339Z,3.67
2018-06-15T06:50:48.755Z,4.33
2018-06-15T06:53:16.206Z,3.50
2018-06-15T06:55:43.795Z,2.80
2018-06-15T06:58:11.236Z,4.58
2018-06-15T07:00:38.898Z,3.10
2018-06-15T07:03:07.184Z,3.42
2018-06-15T07:05:34.630Z,3.50
2018-06-15T07:08:02.051Z,3.10
2018-06-15T07:10:29.610Z,3.77
2018-06-15T07:12:57.044Z,3.70
2018-06-15T07:15:24.807Z,3.05
2018-06-15T07:17:52.623Z,3.72
2018-06-15T07:20:20.055Z,3.85
2018-06-15T07:22:47.514Z,3.37
2018-06-15T07:25:15.404Z,3.98
2018-06-15T07:27:42.815Z,3.50
2018-06-15T07:30:10.538Z,4.28
2018-06-15T07:32:37.994Z,3.55
2018-06-15T07:35:05.394Z,3.25
2018-06-15T07:37:32.986Z,3.65
2018-06-15T07:40:00.495Z,4.50
2018-06-15T07:42:27.907Z,4.22
2018-06-15T07:44:55.891Z,3.55
2018-06-15T07:47:23.404Z,4.00
2018-06-15T07:49:51.418Z,4.10
2018-06-15T07:52:18.818Z,4.12
2018-06-15T07:54:46.419Z,3.62
2018-06-15T07:57:13.826Z,3.80
2018-06-15T07:59:41.428Z,4.33
2018-06-15T08:02:08.871Z,3.37
2018-06-15T08:04:36.282Z,3.50
2018-06-15T08:07:03.827Z,3.65
2018-06-15T08:09:31.566Z,4.22
2018-06-15T08:11:59.252Z,3.42
2018-06-15T08:14:26.840Z,4.45
2018-06-15T08:16:54.311Z,4.35
2018-06-15T08:19:21.826Z,3.55
2018-06-15T08:21:49.301Z,3.65
2018-06-15T08:24:16.721Z,3.72
2018-06-15T08:26:44.332Z,4.67
2018-06-15T08:29:13.191Z,3.30
2018-06-15T08:31:40.631Z,4.05
2018-06-15T08:34:08.102Z,4.33
2018-06-15T08:36:35.578Z,3.67
2018-06-15T08:39:05.405Z,3.75
2018-06-15T08:41:32.810Z,3.70
2018-06-15T08:44:00.660Z,3.90
2018-06-15T08:46:28.119Z,3.77
2018-06-15T08:48:55.798Z,3.47
2018-06-15T08:51:23.257Z,4.00
2018-06-15T08:53:50.747Z,3.70
2018-06-15T08:56:18.154Z,3.33
2018-06-15T08:58:45.567Z,4.53
2018-06-15T09:01:13.472Z,3.67
2018-06-15T09:03:41.029Z,3.67
2018-06-15T09:06:08.542Z,3.25
2018-06-15T09:08:36.160Z,3.33
2018-06-15T09:11:03.570Z,2.95
2018-06-15T09:13:31.039Z,2.52
2018-06-15T09:15:58.531Z,2.85
2018-06-15T09:18:25.965Z,3.35
2018-06-15T09:20:53.408Z,3.20
2018-06-15T09:23:20.854Z,2.70
2018-06-15T09:25:48.688Z,2.50
2018-06-15T09:28:16.106Z,3.40
2018-06-15T09:30:43.558Z,2.58
2018-06-15T09:33:10.983Z,3.98
2018-06-15T09:35:38.400Z,2.60
2018-06-15T09:38:05.912Z,2.87
2018-06-15T09:40:33.636Z,2.60
2018-06-15T09:43:01.043Z,2.98
2018-06-15T09:45:28.899Z,3.33
2018-06-15T09:47:57.228Z,3.20
2018-06-15T09:50:25.465Z,2.87
2018-06-15T09:52:53.268Z,3.20
2018-06-15T09:55:20.857Z,3.02
2018-06-15T09:57:48.803Z,2.42
2018-06-15T10:01:19.602Z,3.10
2018-06-15T10:03:46.999Z,2.80
2018-06-15T10:06:14.718Z,2.58
2018-06-15T10:08:42.229Z,2.42
2018-06-15T10:11:09.674Z,2.55
2018-06-15T10:13:37.230Z,2.00
2018-06-15T10:16:04.751Z,2.40
2018-06-15T10:18:32.143Z,1.67
2018-06-15T10:20:59.762Z,2.12
2018-06-15T10:23:27.543Z,2.02
2018-06-15T10:25:55.008Z,1.87
2018-06-15T10:28:22.578Z,2.25
2018-06-15T10:30:50.156Z,2.50
2018-06-15T10:33:17.570Z,2.10
2018-06-15T10:35:45.021Z,2.00
2018-06-15T10:38:12.450Z,1.90
2018-06-15T10:40:39.871Z,2.30
2018-06-15T10:43:07.660Z,3.02
2018-06-15T10:45:35.333Z,2.37
2018-06-15T10:48:02.987Z,2.55
2018-06-15T10:50:30.418Z,2.80
2018-06-15T10:52:58.353Z,3.60
2018-06-15T10:55:25.763Z,2.60
2018-06-15T10:57:53.313Z,2.55
2018-06-15T11:00:20.897Z,2.60
2018-06-15T11:02:48.331Z,3.17
2018-06-15T11:05:15.758Z,2.72
2018-06-15T11:07:43.243Z,2.50
2018-06-15T11:10:10.687Z,2.58
2018-06-15T11:12:38.622Z,2.40
2018-06-15T11:15:06.041Z,2.58
2018-06-15T11:17:34.331Z,2.87
2018-06-15T11:20:02.169Z,2.37
2018-06-15T11:22:29.739Z,2.30
2018-06-15T11:24:57.278Z,2.08
2018-06-15T11:27:24.714Z,2.52
2018-06-15T11:29:52.340Z,2.35
2018-06-15T11:32:19.828Z,1.87
2018-06-15T11:34:47.346Z,2.62
2018-06-15T11:37:14.842Z,3.33
2018-06-15T11:39:42.723Z,2.60
2018-06-15T11:42:10.201Z,2.35
2018-06-15T11:44:37.786Z,2.70
2018-06-15T11:47:05.316Z,2.17
2018-06-15T11:49:32.947Z,2.65
2018-06-15T11:52:00.429Z,2.33
2018-06-15T11:54:27.858Z,2.52
2018-06-15T11:56:56.263Z,2.42
2018-06-15T11:59:23.702Z,2.02
2018-06-15T12:01:51.331Z,2.35
2018-06-15T12:04:19.151Z,1.85
2018-06-15T12:06:46.640Z,2.62
2018-06-15T12:09:14.134Z,2.80
2018-06-15T12:11:41.612Z,2.90
2018-06-15T12:14:09.152Z,2.37
2018-06-15T12:16:37.950Z,2.65
2018-06-15T12:19:05.563Z,2.55
2018-06-15T12:21:33.207Z,2.62
2018-06-15T12:24:01.034Z,2.62
2018-06-15T12:26:29.151Z,3.02
2018-06-15T12:28:56.963Z,2.72
2018-06-15T12:31:24.874Z,2.35
2018-06-15T12:33:52.690Z,2.90
2018-06-15T12:36:20.467Z,2.75
2018-06-15T12:38:47.980Z,1.82
2018-06-15T12:41:15.580Z,2.40
2018-06-15T12:43:43.633Z,2.27
2018-06-15T12:46:11.183Z,2.65
2018-06-15T12:48:38.650Z,2.35
2018-06-15T12:51:07.257Z,4.42
2018-06-15T12:53:34.763Z,3.20
2018-06-15T12:56:02.385Z,2.33
2018-06-15T12:58:29.896Z,2.15
2018-06-15T13:00:57.624Z,2.90
2018-06-15T13:03:25.211Z,2.42
2018-06-15T13:05:52.814Z,2.52
2018-06-15T13:08:20.286Z,2.20
2018-06-15T13:10:47.949Z,2.40
2018-06-15T13:13:15.538Z,1.85
2018-06-15T13:15:42.944Z,1.82
2018-06-15T13:18:10.640Z,1.95
2018-06-15T13:20:38.316Z,2.20
2018-06-15T13:23:05.937Z,1.85
2018-06-15T13:25:33.553Z,2.47
2018-06-15T13:28:01.018Z,2.33
2018-06-15T13:30:28.499Z,2.17
2018-06-15T13:32:56.701Z,2.67
2018-06-15T13:35:24.213Z,2.30
2018-06-15T13:37:51.885Z,2.52
2018-06-15T13:40:19.351Z,2.35
2018-06-15T13:42:47.693Z,1.90
2018-06-15T13:45:15.154Z,2.37
2018-06-15T13:47:42.622Z,2.55
2018-06-15T13:50:10.623Z,2.02
2018-06-15T13:52:39.590Z,1.98
2018-06-15T13:55:07.542Z,2.30
2018-06-15T13:57:35.199Z,1.95
2018-06-15T14:00:02.763Z,1.90
2018-06-15T14:02:30.167Z,1.87
2018-06-15T14:04:57.823Z,2.80
2018-06-15T14:07:25.334Z,2.35
2018-06-15T14:09:53.040Z,2.40
2018-06-15T14:12:20.467Z,2.02
2018-06-15T14:14:47.906Z,2.55
2018-06-15T14:17:15.370Z,2.20
2018-06-15T14:19:42.994Z,2.45
2018-06-15T14:22:10.456Z,2.12
2018-06-15T14:24:37.951Z,2.40
2018-06-15T14:27:05.736Z,2.37
2018-06-15T14:29:33.287Z,2.47
2018-06-15T14:32:00.760Z,2.10
2018-06-15T14:34:28.176Z,2.00
2018-06-15T14:36:55.578Z,1.98
2018-06-15T14:39:23.002Z,2.10
2018-06-15T14:41:50.586Z,2.05
2018-06-15T14:44:18.175Z,2.40
2018-06-15T14:46:45.666Z,2.27
2018-06-15T14:49:13.091Z,2.00
2018-06-15T14:51:40.535Z,2.20
2018-06-15T14:54:07.993Z,2.17
2018-06-15T14:56:35.583Z,2.17
2018-06-15T14:59:02.997Z,2.10
2018-06-15T15:01:30.479Z,2.83
2018-06-15T15:03:57.914Z,2.58
2018-06-15T15:06:25.508Z,2.25
2018-06-15T15:08:53.071Z,2.92
2018-06-15T15:11:20.493Z,3.02
2018-06-15T15:13:47.927Z,2.22
2018-06-15T15:16:15.913Z,2.83
2018-06-15T15:18:43.386Z,2.80
2018-06-15T15:21:11.379Z,2.52
2018-06-15T15:23:38.811Z,2.37
2018-06-15T15:26:06.338Z,2.40
2018-06-15T15:28:33.749Z,2.05
2018-06-15T15:31:01.451Z,2.50
2018-06-15T15:33:28.901Z,2.22
2018-06-15T15:35:56.356Z,2.08
2018-06-15T15:38:23.825Z,1.85
2018-06-15T15:40:51.871Z,1.90
2018-06-15T15:43:19.406Z,1.90
2018-06-15T15:45:47.808Z,2.67
2018-06-15T15:48:17.704Z,2.27
2018-06-15T15:50:45.388Z,1.80
2018-06-15T15:53:13.243Z,1.98
2018-06-15T15:55:40.726Z,1.80
2018-06-15T15:58:08.239Z,1.98
2018-06-15T16:00:36.234Z,1.80
2018-06-15T16:03:04.117Z,1.98
2018-06-15T16:05:31.880Z,1.92
2018-06-15T16:07:59.359Z,1.82
2018-06-15T16:10:27.332Z,1.87
2018-06-15T16:12:54.829Z,1.90
2018-06-15T16:15:23.053Z,1.85
2018-06-15T16:17:50.501Z,2.17
2018-06-15T16:20:18.109Z,1.95
2018-06-15T16:22:45.626Z,1.87
2018-06-15T16:25:16.522Z,2.12
2018-06-15T16:27:44.227Z,2.40
2018-06-15T16:30:13.437Z,2.20
2018-06-15T16:32:42.123Z,1.95
2018-06-15T16:35:10.824Z,2.62
2018-06-15T16:37:38.290Z,1.85
2018-06-15T16:40:07.174Z,2.20
2018-06-15T16:42:36.171Z,2.37
2018-06-15T16:45:04.394Z,1.70
2018-06-15T16:47:31.819Z,2.67
2018-06-15T16:49:59.388Z,2.52
2018-06-15T16:52:26.858Z,1.95
2018-06-15T16:54:54.669Z,2.15
2018-06-15T16:57:22.211Z,2.35
2018-06-15T16:59:49.694Z,2.05
2018-06-15T17:02:17.666Z,2.25
2018-06-15T17:04:45.102Z,2.52
2018-06-15T17:07:12.790Z,2.30
2018-06-15T17:09:40.441Z,2.22
2018-06-15T17:12:08.238Z,2.27
2018-06-15T17:14:35.844Z,2.80
2018-06-15T17:17:03.574Z,2.12
2018-06-15T17:19:31.094Z,2.37
2018-06-15T17:21:58.818Z,2.52
2018-06-15T17:24:26.595Z,2.17
2018-06-15T17:26:54.264Z,2.33
2018-06-15T17:29:22.801Z,2.25
2018-06-15T17:31:50.419Z,2.47
2018-06-15T17:34:18.122Z,1.85
2018-06-15T17:36:45.951Z,2.17
2018-06-15T17:39:13.814Z,2.50
2018-06-15T17:41:44.574Z,3.33
2018-06-15T17:44:12.203Z,3.27
2018-06-15T17:46:39.772Z,3.17
2018-06-15T17:49:08.024Z,3.22
2018-06-15T17:51:35.671Z,2.83
2018-06-15T17:54:03.275Z,2.65
2018-06-15T17:56:31.935Z,2.30
2018-06-15T17:58:59.871Z,3.00
2018-06-15T18:01:27.275Z,2.50
2018-06-15T18:03:55.535Z,2.35
2018-06-15T18:06:22.987Z,2.20
2018-06-15T18:08:50.688Z,2.72
2018-06-15T18:11:18.231Z,2.37
2018-06-15T18:13:45.918Z,2.80
2018-06-15T18:16:13.334Z,2.47
2018-06-15T18:18:41.008Z,2.65
2018-06-15T18:21:08.782Z,3.00
2018-06-15T18:23:36.297Z,2.50
2018-06-15T18:26:04.434Z,3.05
2018-06-15T18:28:32.159Z,2.72
2018-06-15T18:30:59.963Z,2.80
2018-06-15T18:33:27.593Z,2.92
2018-06-15T18:35:55.275Z,2.85
2018-06-15T18:38:23.130Z,2.50
2018-06-15T18:40:50.868Z,2.50
2018-06-15T18:43:18.928Z,2.60
2018-06-15T18:45:46.713Z,3.05
2018-06-15T18:48:15.332Z,2.77
2018-06-15T18:50:42.959Z,2.80
2018-06-15T18:53:10.499Z,2.98
2018-06-15T18:55:38.398Z,3.10
2018-06-15T18:58:06.191Z,2.80
2018-06-15T19:00:33.621Z,2.95
2018-06-15T19:03:01.059Z,3.20
2018-06-15T19:05:28.637Z,3.33
2018-06-15T19:07:56.163Z,3.35
2018-06-15T19:10:23.849Z,3.30
2018-06-15T19:12:51.644Z,3.25
2018-06-15T19:15:19.287Z,3.20
2018-06-15T19:17:46.849Z,2.95
2018-06-15T19:20:14.278Z,3.27
2018-06-15T19:22:42.090Z,2.90
2018-06-15T19:25:09.561Z,3.70
2018-06-15T19:27:37.000Z,3.15
2018-06-15T19:30:04.531Z,3.70
2018-06-15T19:32:32.066Z,3.90
2018-06-15T19:34:59.791Z,3.92
2018-06-15T19:37:27.290Z,3.75
2018-06-15T19:39:55.258Z,3.50
2018-06-15T19:42:22.883Z,3.85
2018-06-15T19:44:50.619Z,4.60
2018-06-15T19:47:19.006Z,6.75
2018-06-15T19:49:46.726Z,5.40
2018-06-15T19:52:14.649Z,5.15
2018-06-15T19:54:42.571Z,4.78
2018-06-15T19:57:10.102Z,4.22
2018-06-15T19:59:38.255Z,3.90
2018-06-15T20:02:06.292Z,3.47
2018-06-15T20:04:34.299Z,3.70
2018-06-15T20:07:02.216Z,3.95
2018-06-15T20:09:29.983Z,4.03
2018-06-15T20:11:58.398Z,3.77
2018-06-15T20:14:26.160Z,3.58
2018-06-15T20:16:54.103Z,3.70
2018-06-15T20:19:21.552Z,3.62
2018-06-15T20:21:49.443Z,4.00
2018-06-15T20:24:17.408Z,4.20
2018-06-15T20:26:44.854Z,3.85
2018-06-15T20:29:12.304Z,4.17
2018-06-15T20:31:40.540Z,3.80
2018-06-15T20:34:09.169Z,3.60
2018-06-15T20:36:36.588Z,4.55
2018-06-15T20:39:05.749Z,3.77
2018-06-15T20:41:33.800Z,3.95
2018-06-15T20:44:02.005Z,3.85
2018-06-15T20:46:29.494Z,4.33
2018-06-15T20:48:57.445Z,3.75
2018-06-15T20:51:24.945Z,4.30
2018-06-15T20:53:52.397Z,3.90
2018-06-15T20:56:19.854Z,3.95
2018-06-15T20:58:47.419Z,4.55
2018-06-15T21:01:14.879Z,4.08
2018-06-15T21:03:42.346Z,4.28
2018-06-15T21:06:10.134Z,4.22
2018-06-15T21:08:37.625Z,4.92
2018-06-15T21:11:06.044Z,4.67
2018-06-15T21:13:33.690Z,4.58
2018-06-15T21:16:01.774Z,4.05
2018-06-15T21:18:29.305Z,4.33
2018-06-15T21:20:57.639Z,5.28
2018-06-15T21:23:25.084Z,5.95
2018-06-15T21:25:52.579Z,5.58
2018-06-15T21:28:20.814Z,5.40
2018-06-15T21:30:49.062Z,5.65
2018-06-15T21:33:16.559Z,5.70
2018-06-15T21:35:44.046Z,5.10
2018-06-15T21:38:11.822Z,5.55
2018-06-15T21:40:40.885Z,5.95
2018-06-15T21:43:08.669Z,5.70
2018-06-15T21:45:36.200Z,5.05
2018-06-15T21:48:03.953Z,5.72
2018-06-15T21:50:31.487Z,4.78
2018-06-15T21:53:00.135Z,5.85
2018-06-15T21:55:27.558Z,5.28
2018-06-15T21:57:54.982Z,5.92
2018-06-15T22:00:23.911Z,4.70
2018-06-15T22:02:52.148Z,5.80
2018-06-15T22:05:19.913Z,6.47
2018-06-15T22:07:47.877Z,6.10
2018-06-15T22:10:15.526Z,5.80
2018-06-15T22:12:42.991Z,6.20
2018-06-15T22:15:10.417Z,5.55
2018-06-15T22:17:37.879Z,5.67
2018-06-15T22:20:05.397Z,5.62
2018-06-15T22:22:34.228Z,6.70
2018-06-15T22:25:01.782Z,5.45
2018-06-15T22:27:29.403Z,5.50
2018-06-15T22:29:57.090Z,5.78
2018-06-15T22:32:24.638Z,5.75
2018-06-15T22:34:52.090Z,6.28
2018-06-15T22:37:19.792Z,5.67
2018-06-15T22:39:48.302Z,5.45
2018-06-15T22:42:15.746Z,6.65
2018-06-15T22:44:43.183Z,6.45
2018-06-15T22:47:11.166Z,7.20
2018-06-15T22:49:38.645Z,6.28
2018-06-15T22:52:06.156Z,6.62
2018-06-15T22:54:34.847Z,6.78
2018-06-15T22:57:02.528Z,6.15
2018-06-15T22:59:30.091Z,6.60
2018-06-15T23:01:57.802Z,6.40
2018-06-15T23:04:25.394Z,6.17
2018-06-15T23:06:53.424Z,6.25
2018-06-15T23:09:20.916Z,5.95
2018-06-15T23:11:48.868Z,5.92
2018-06-15T23:14:16.279Z,5.85
2018-06-15T23:16:44.072Z,6.10
2018-06-15T23:19:11.503Z,5.90
2018-06-15T23:21:39.058Z,5.60
2018-06-15T23:24:06.721Z,4.72
2018-06-15T23:26:34.146Z,5.62
2018-06-15T23:29:01.661Z,5.87
2018-06-15T23:31:29.427Z,5.85
2018-06-15T23:33:57.634Z,5.78
2018-06-15T23:36:25.728Z,6.05
2018-06-15T23:38:53.480Z,6.30
2018-06-15T23:41:21.549Z,6.83
2018-06-15T23:43:48.994Z,6.22
2018-06-15T23:46:16.563Z,7.15
2018-06-15T23:48:44.606Z,6.80
2018-06-15T23:51:12.059Z,6.03
2018-06-15T23:53:39.921Z,6.45
2018-06-15T23:56:07.474Z,6.75
2018-06-15T23:58:34.947Z,6.85
